Hawk — LAGF7 — position and weather

sailwx.info

Track history (hours):
 
Tides and Currents Weather Stations Pressure Air Temp Water Temp Dewpoint Dewpoint Depression Visibility Wind Speed Wind Dir Waves Ship Positions

Hawk

Last reported at 2016-Jul-21 01:24 UTC. Time now 2016-Jul-30 20:41 UTC.
Position N 02°33' E 101°30'.
Warning: this ship's position is 9 days out of date.

Length 223 m; draft 11.1 m.

Type: Ship. MMSI: 259848000.

Date/timePositionNaut miles runAvg speedWind from/ knotsBaromVisibWave heightAir tempDewpointWater temp
2016-Jul-21 01:24N 02°33' E 101°30'49 8.4
2016-Jul-20 19:32N 02°03' E 102°09'1010.2
2016-Jul-20 18:31N 01°57' E 102°17'9 9.4
2016-Jul-20 17:33N 01°53' E 102°25'9 9.2
2016-Jul-20 16:33N 01°49' E 102°33'8 7.6
2016-Jul-20 15:33N 01°46' E 102°40'9 8.8
2016-Jul-20 14:29N 01°42' E 102°49'10 8.6
2016-Jul-20 13:21N 01°38' E 102°58'45 9.0
2016-Jul-20 08:20N 01°14' E 103°36'0 0.0
2016-Jul-19 09:31N 01°14' E 103°36'0 0.1
2016-Jul-19 08:28N 01°14' E 103°36'0 0.0
2016-Jul-17 22:25N 01°14' E 103°36'0 0.0
2016-Jul-16 11:25N 01°14' E 103°36'0 0.0
2016-Jul-16 07:33N 01°14' E 103°36'7 7.1
2016-Jul-16 06:31N 01°10' E 103°42'15 7.7
2016-Jul-16 04:31N 01°17' E 103°56'0 0.0
2016-Jul-16 03:17N 01°17' E 103°56'0 0.0
2016-Jul-16 02:25N 01°17' E 103°56'0 0.0
2016-Jul-16 01:25N 01°17' E 103°56'0 0.0
2016-Jul-16 00:31N 01°17' E 103°56'0 0.0
2016-Jul-15 23:25N 01°17' E 103°56'0 0.0
2016-Jul-15 22:31N 01°17' E 103°56'0 0.1
2016-Jul-15 21:32N 01°17' E 103°56'0 0.0
2016-Jul-15 20:31N 01°17' E 103°56'0 0.0
2016-Jul-15 19:25N 01°17' E 103°56'0 0.1
2016-Jul-15 18:31N 01°17' E 103°56'0 0.0
2016-Jul-15 17:31N 01°17' E 103°56'0 0.0
2016-Jul-15 16:31N 01°17' E 103°56'0 0.0
2016-Jul-15 15:31N 01°17' E 103°56'0 0.0
2016-Jul-15 14:25N 01°17' E 103°56'0 0.0
2016-Jul-15 13:31N 01°17' E 103°56'0 0.1
2016-Jul-15 12:31N 01°17' E 103°56'0 0.1
2016-Jul-15 11:31N 01°17' E 103°56'0 0.0
2016-Jul-15 10:31N 01°17' E 103°56'0 0.0
2016-Jul-15 09:31N 01°17' E 103°56'0 0.1
2016-Jul-15 08:31N 01°17' E 103°55'0 0.1
2016-Jul-15 07:28N 01°17' E 103°56'0 0.1
2016-Jul-15 06:31N 01°17' E 103°56'0 0.1
2016-Jul-15 05:31N 01°17' E 103°56'0 0.2
2016-Jul-15 04:28N 01°17' E 103°56'0 0.1
2016-Jul-15 03:31N 01°17' E 103°55'0 0.1
2016-Jul-15 02:31N 01°17' E 103°56'0 0.0
2016-Jul-15 01:31N 01°17' E 103°56'0 0.0
2016-Jul-15 00:19N 01°17' E 103°56'0 0.0
2016-Jul-14 23:31N 01°17' E 103°56'0 0.0
2016-Jul-14 22:31N 01°17' E 103°56'0 0.1
2016-Jul-14 21:13N 01°17' E 103°56'0 0.0
2016-Jul-14 20:28N 01°17' E 103°56'0 0.0
2016-Jul-14 19:31N 01°17' E 103°56'0 0.1
2016-Jul-14 18:31N 01°17' E 103°56'0 0.1
2016-Jul-14 17:31N 01°17' E 103°56'0 0.1
2016-Jul-14 16:31N 01°17' E 103°56'0 0.1
2016-Jul-14 15:31N 01°17' E 103°56'0 0.0
2016-Jul-14 14:31N 01°17' E 103°56'0 0.0
2016-Jul-14 13:31N 01°17' E 103°56'0 0.0
2016-Jul-14 12:28N 01°17' E 103°56'0 0.1
2016-Jul-14 11:31N 01°17' E 103°56'0 0.1
2016-Jul-14 10:31N 01°17' E 103°56'0 0.1
2016-Jul-14 09:25N 01°17' E 103°55'0 0.1
2016-Jul-14 08:31N 01°17' E 103°56'0 0.0
2016-Jul-14 07:31N 01°17' E 103°56'0 0.0
2016-Jul-14 06:31N 01°17' E 103°56'0 0.1
2016-Jul-14 05:31N 01°17' E 103°56'0 0.1
2016-Jul-14 04:31N 01°17' E 103°56'0 0.1
2016-Jul-14 03:31N 01°17' E 103°56'0 0.2
2016-Jul-14 02:25N 01°17' E 103°56'0 0.0
2016-Jul-14 01:31N 01°17' E 103°56'0 0.0
2016-Jul-14 00:31N 01°17' E 103°56'0 0.0
2016-Jul-13 23:10N 01°17' E 103°56'0 0.1
2016-Jul-13 22:31N 01°17' E 103°56'0 0.0
2016-Jul-13 21:22N 01°17' E 103°56'0 0.0
2016-Jul-13 20:28N 01°17' E 103°56'0 0.0
2016-Jul-13 19:25N 01°17' E 103°56'0 0.0
2016-Jul-13 18:31N 01°17' E 103°56'0 0.0
2016-Jul-13 17:31N 01°17' E 103°56'0 0.0
2016-Jul-13 16:31N 01°17' E 103°56'0 0.0
2016-Jul-13 15:16N 01°17' E 103°56'0 0.0
2016-Jul-13 14:31N 01°17' E 103°56'0 0.0
2016-Jul-13 13:31N 01°17' E 103°56'0 0.0
2016-Jul-13 12:31N 01°17' E 103°56'0 0.1
2016-Jul-13 11:31N 01°17' E 103°56'0 0.0
2016-Jul-13 10:31N 01°17' E 103°56'0 0.0
2016-Jul-13 09:31N 01°17' E 103°56'0 0.0
2016-Jul-13 08:25N 01°17' E 103°56'0 0.0
2016-Jul-13 07:31N 01°17' E 103°56'0 0.1
2016-Jul-13 06:32N 01°17' E 103°56'0 0.1
2016-Jul-13 05:31N 01°17' E 103°56'0 0.1
2016-Jul-13 04:31N 01°17' E 103°56'0 0.1
2016-Jul-13 03:31N 01°17' E 103°56'0 0.2
2016-Jul-13 02:25N 01°17' E 103°55'0 0.1
2016-Jul-13 01:25N 01°17' E 103°56'0 0.1
2016-Jul-13 00:31N 01°17' E 103°56'0 0.0
2016-Jul-12 23:31N 01°17' E 103°56'0 0.1
2016-Jul-12 22:28N 01°17' E 103°56'0 0.0
2016-Jul-12 21:25N 01°17' E 103°56'0 0.0
2016-Jul-12 20:31N 01°17' E 103°56'0 0.0
2016-Jul-12 19:31N 01°17' E 103°56'0 0.1
2016-Jul-12 18:31N 01°17' E 103°56'0 0.1
2016-Jul-12 17:22N 01°17' E 103°56'0 0.1
2016-Jul-12 16:31N 01°17' E 103°55'0 0.1
2016-Jul-12 15:31N 01°17' E 103°56'0 0.0
2016-Jul-12 14:19N 01°17' E 103°56'0 0.0
2016-Jul-12 13:31N 01°17' E 103°56'0 0.1
2016-Jul-12 12:31N 01°17' E 103°55'0 0.0
2016-Jul-12 11:31N 01°17' E 103°55'0 0.0
2016-Jul-12 10:31N 01°17' E 103°55'0 0.0
2016-Jul-12 09:13N 01°17' E 103°55'0 0.0
2016-Jul-12 08:19N 01°17' E 103°55'0 0.0
2016-Jul-12 07:31N 01°17' E 103°55'0 0.0
2016-Jul-12 06:32N 01°17' E 103°55'0 0.0
2016-Jul-12 05:25N 01°17' E 103°55'0 0.1
2016-Jul-12 04:28N 01°17' E 103°56'0 0.1
2016-Jul-12 03:31N 01°17' E 103°56'0 0.1
2016-Jul-12 02:31N 01°17' E 103°56'0 0.0
2016-Jul-12 01:31N 01°17' E 103°56'0 0.0
2016-Jul-12 00:28N 01°17' E 103°56'0 0.0
2016-Jul-11 23:31N 01°17' E 103°56'0 0.0
2016-Jul-11 22:31N 01°17' E 103°56'0 0.0
2016-Jul-11 21:31N 01°17' E 103°56'0 0.0
2016-Jul-11 20:25N 01°17' E 103°56'0 0.1
2016-Jul-11 19:31N 01°17' E 103°56'0 0.1
2016-Jul-11 18:31N 01°17' E 103°56'0 0.0
2016-Jul-11 17:28N 01°17' E 103°56'0 0.1
2016-Jul-11 16:19N 01°17' E 103°55'0 0.1
2016-Jul-11 15:19N 01°17' E 103°56'0 0.0
2016-Jul-11 14:31N 01°17' E 103°56'0 0.0
2016-Jul-11 13:25N 01°17' E 103°56'0 0.1
2016-Jul-11 12:31N 01°17' E 103°56'0 0.1
2016-Jul-11 11:31N 01°17' E 103°56'0 0.0
2016-Jul-11 10:22N 01°17' E 103°56'0 0.1
2016-Jul-11 09:31N 01°17' E 103°56'0 0.0
2016-Jul-11 08:31N 01°17' E 103°56'0 0.1
2016-Jul-11 07:31N 01°17' E 103°56'0 0.0
2016-Jul-11 06:31N 01°17' E 103°56'0 0.0
2016-Jul-11 04:31N 01°17' E 103°56'0 0.1
2016-Jul-11 03:25N 01°17' E 103°56'0 0.0
2016-Jul-11 02:31N 01°17' E 103°56'0 0.1
2016-Jul-11 01:31N 01°17' E 103°56'  
Track history (hours):
 
Tides and Currents Weather Stations Pressure Air Temp Water Temp Dewpoint Dewpoint Depression Visibility Wind Speed Wind Dir Waves Ship Positions

Hawk

Last reported at 2016-Jul-21 01:24 UTC. Time now 2016-Jul-30 20:41 UTC.
Position N 02°33' E 101°30'.
Warning: this ship's position is 9 days out of date.

Length 223 m; draft 11.1 m.

Type: Ship. MMSI: 259848000.

Date/timePositionNaut miles runAvg speedWind from/ knotsBaromVisibWave heightAir tempDewpointWater temp
2016-Jul-21 01:24N 02°33' E 101°30'49 8.4
2016-Jul-20 19:32N 02°03' E 102°09'1010.2
2016-Jul-20 18:31N 01°57' E 102°17'9 9.4
2016-Jul-20 17:33N 01°53' E 102°25'9 9.2
2016-Jul-20 16:33N 01°49' E 102°33'8 7.6
2016-Jul-20 15:33N 01°46' E 102°40'9 8.8
2016-Jul-20 14:29N 01°42' E 102°49'10 8.6
2016-Jul-20 13:21N 01°38' E 102°58'45 9.0
2016-Jul-20 08:20N 01°14' E 103°36'0 0.0
2016-Jul-19 09:31N 01°14' E 103°36'0 0.1
2016-Jul-19 08:28N 01°14' E 103°36'0 0.0
2016-Jul-17 22:25N 01°14' E 103°36'0 0.0
2016-Jul-16 11:25N 01°14' E 103°36'0 0.0
2016-Jul-16 07:33N 01°14' E 103°36'7 7.1
2016-Jul-16 06:31N 01°10' E 103°42'15 7.7
2016-Jul-16 04:31N 01°17' E 103°56'0 0.0
2016-Jul-16 03:17N 01°17' E 103°56'0 0.0
2016-Jul-16 02:25N 01°17' E 103°56'0 0.0
2016-Jul-16 01:25N 01°17' E 103°56'0 0.0
2016-Jul-16 00:31N 01°17' E 103°56'0 0.0
2016-Jul-15 23:25N 01°17' E 103°56'0 0.0
2016-Jul-15 22:31N 01°17' E 103°56'0 0.1
2016-Jul-15 21:32N 01°17' E 103°56'0 0.0
2016-Jul-15 20:31N 01°17' E 103°56'0 0.0
2016-Jul-15 19:25N 01°17' E 103°56'0 0.1
2016-Jul-15 18:31N 01°17' E 103°56'0 0.0
2016-Jul-15 17:31N 01°17' E 103°56'0 0.0
2016-Jul-15 16:31N 01°17' E 103°56'0 0.0
2016-Jul-15 15:31N 01°17' E 103°56'0 0.0
2016-Jul-15 14:25N 01°17' E 103°56'0 0.0
2016-Jul-15 13:31N 01°17' E 103°56'0 0.1
2016-Jul-15 12:31N 01°17' E 103°56'0 0.1
2016-Jul-15 11:31N 01°17' E 103°56'0 0.0
2016-Jul-15 10:31N 01°17' E 103°56'0 0.0
2016-Jul-15 09:31N 01°17' E 103°56'0 0.1
2016-Jul-15 08:31N 01°17' E 103°55'0 0.1
2016-Jul-15 07:28N 01°17' E 103°56'0 0.1
2016-Jul-15 06:31N 01°17' E 103°56'0 0.1
2016-Jul-15 05:31N 01°17' E 103°56'0 0.2
2016-Jul-15 04:28N 01°17' E 103°56'0 0.1
2016-Jul-15 03:31N 01°17' E 103°55'0 0.1
2016-Jul-15 02:31N 01°17' E 103°56'0 0.0
2016-Jul-15 01:31N 01°17' E 103°56'0 0.0
2016-Jul-15 00:19N 01°17' E 103°56'0 0.0
2016-Jul-14 23:31N 01°17' E 103°56'0 0.0
2016-Jul-14 22:31N 01°17' E 103°56'0 0.1
2016-Jul-14 21:13N 01°17' E 103°56'0 0.0
2016-Jul-14 20:28N 01°17' E 103°56'0 0.0
2016-Jul-14 19:31N 01°17' E 103°56'0 0.1
2016-Jul-14 18:31N 01°17' E 103°56'0 0.1
2016-Jul-14 17:31N 01°17' E 103°56'0 0.1
2016-Jul-14 16:31N 01°17' E 103°56'0 0.1
2016-Jul-14 15:31N 01°17' E 103°56'0 0.0
2016-Jul-14 14:31N 01°17' E 103°56'0 0.0
2016-Jul-14 13:31N 01°17' E 103°56'0 0.0
2016-Jul-14 12:28N 01°17' E 103°56'0 0.1
2016-Jul-14 11:31N 01°17' E 103°56'0 0.1
2016-Jul-14 10:31N 01°17' E 103°56'0 0.1
2016-Jul-14 09:25N 01°17' E 103°55'0 0.1
2016-Jul-14 08:31N 01°17' E 103°56'0 0.0
2016-Jul-14 07:31N 01°17' E 103°56'0 0.0
2016-Jul-14 06:31N 01°17' E 103°56'0 0.1
2016-Jul-14 05:31N 01°17' E 103°56'0 0.1
2016-Jul-14 04:31N 01°17' E 103°56'0 0.1
2016-Jul-14 03:31N 01°17' E 103°56'0 0.2
2016-Jul-14 02:25N 01°17' E 103°56'0 0.0
2016-Jul-14 01:31N 01°17' E 103°56'0 0.0
2016-Jul-14 00:31N 01°17' E 103°56'0 0.0
2016-Jul-13 23:10N 01°17' E 103°56'0 0.1
2016-Jul-13 22:31N 01°17' E 103°56'0 0.0
2016-Jul-13 21:22N 01°17' E 103°56'0 0.0
2016-Jul-13 20:28N 01°17' E 103°56'0 0.0
2016-Jul-13 19:25N 01°17' E 103°56'0 0.0
2016-Jul-13 18:31N 01°17' E 103°56'0 0.0
2016-Jul-13 17:31N 01°17' E 103°56'0 0.0
2016-Jul-13 16:31N 01°17' E 103°56'0 0.0
2016-Jul-13 15:16N 01°17' E 103°56'0 0.0
2016-Jul-13 14:31N 01°17' E 103°56'0 0.0
2016-Jul-13 13:31N 01°17' E 103°56'0 0.0
2016-Jul-13 12:31N 01°17' E 103°56'0 0.1
2016-Jul-13 11:31N 01°17' E 103°56'0 0.0
2016-Jul-13 10:31N 01°17' E 103°56'0 0.0
2016-Jul-13 09:31N 01°17' E 103°56'0 0.0
2016-Jul-13 08:25N 01°17' E 103°56'0 0.0
2016-Jul-13 07:31N 01°17' E 103°56'0 0.1
2016-Jul-13 06:32N 01°17' E 103°56'0 0.1
2016-Jul-13 05:31N 01°17' E 103°56'0 0.1
2016-Jul-13 04:31N 01°17' E 103°56'0 0.1
2016-Jul-13 03:31N 01°17' E 103°56'0 0.2
2016-Jul-13 02:25N 01°17' E 103°55'0 0.1
2016-Jul-13 01:25N 01°17' E 103°56'0 0.1
2016-Jul-13 00:31N 01°17' E 103°56'0 0.0
2016-Jul-12 23:31N 01°17' E 103°56'0 0.1
2016-Jul-12 22:28N 01°17' E 103°56'0 0.0
2016-Jul-12 21:25N 01°17' E 103°56'0 0.0
2016-Jul-12 20:31N 01°17' E 103°56'0 0.0
2016-Jul-12 19:31N 01°17' E 103°56'0 0.1
2016-Jul-12 18:31N 01°17' E 103°56'0 0.1
2016-Jul-12 17:22N 01°17' E 103°56'0 0.1
2016-Jul-12 16:31N 01°17' E 103°55'0 0.1
2016-Jul-12 15:31N 01°17' E 103°56'0 0.0
2016-Jul-12 14:19N 01°17' E 103°56'0 0.0
2016-Jul-12 13:31N 01°17' E 103°56'0 0.1
2016-Jul-12 12:31N 01°17' E 103°55'0 0.0
2016-Jul-12 11:31N 01°17' E 103°55'0 0.0
2016-Jul-12 10:31N 01°17' E 103°55'0 0.0
2016-Jul-12 09:13N 01°17' E 103°55'0 0.0
2016-Jul-12 08:19N 01°17' E 103°55'0 0.0
2016-Jul-12 07:31N 01°17' E 103°55'0 0.0
2016-Jul-12 06:32N 01°17' E 103°55'0 0.0
2016-Jul-12 05:25N 01°17' E 103°55'0 0.1
2016-Jul-12 04:28N 01°17' E 103°56'0 0.1
2016-Jul-12 03:31N 01°17' E 103°56'0 0.1
2016-Jul-12 02:31N 01°17' E 103°56'0 0.0
2016-Jul-12 01:31N 01°17' E 103°56'0 0.0
2016-Jul-12 00:28N 01°17' E 103°56'0 0.0
2016-Jul-11 23:31N 01°17' E 103°56'0 0.0
2016-Jul-11 22:31N 01°17' E 103°56'0 0.0
2016-Jul-11 21:31N 01°17' E 103°56'0 0.0
2016-Jul-11 20:25N 01°17' E 103°56'0 0.1
2016-Jul-11 19:31N 01°17' E 103°56'0 0.1
2016-Jul-11 18:31N 01°17' E 103°56'0 0.0
2016-Jul-11 17:28N 01°17' E 103°56'0 0.1
2016-Jul-11 16:19N 01°17' E 103°55'0 0.1
2016-Jul-11 15:19N 01°17' E 103°56'0 0.0
2016-Jul-11 14:31N 01°17' E 103°56'0 0.0
2016-Jul-11 13:25N 01°17' E 103°56'0 0.1
2016-Jul-11 12:31N 01°17' E 103°56'0 0.1
2016-Jul-11 11:31N 01°17' E 103°56'0 0.0
2016-Jul-11 10:22N 01°17' E 103°56'0 0.1
2016-Jul-11 09:31N 01°17' E 103°56'0 0.0
2016-Jul-11 08:31N 01°17' E 103°56'0 0.1
2016-Jul-11 07:31N 01°17' E 103°56'0 0.0
2016-Jul-11 06:31N 01°17' E 103°56'0 0.0
2016-Jul-11 04:31N 01°17' E 103°56'0 0.1
2016-Jul-11 03:25N 01°17' E 103°56'0 0.0
2016-Jul-11 02:31N 01°17' E 103°56'0 0.1
2016-Jul-11 01:31N 01°17' E 103°56'  

Dump ship's entire track history